PWSweather.com
Personal Weather Stations
Station Observations
SHAHALMS1
Eftra, Falkenberg, HA

EftraFalkenberg, HA

Lat: 56.85, Lon: 12.65

Elevation: 140

Station Type:

http://hem.passagen.se/risarp101

High Low Average
Temperature 78.1°F25.6°C 63.5°F17.5°C 70.5°F21.4°C
Dew Point 64.5°F18.1°C 55.7°F13.2°C 60.1°F15.6°C
Winds 7.8 mph 12.6 kmh Calm Calm 4.0 mph WSW6.4 kmh WSW
Wind Gusts 22.2 mph35.7 kmh -- 9.0 mph14.5 kmh
Humidity 90% 53% 71%
Pressure 30.01 in1016.3 mb 29.89 in1012.2 mb -
Precipitation 0.22 in5.6 mm - -
Hour Temp Dew Point Humidity Winds Wind Gusts Pressure Precip Precip Rate Daily Precip Total
12:00 AM 63.5°F17.5°C 57.2°F14.0°C 80% Calm Calm -- 29.98 in1015.2 mb 0.00 in0.0 mm 0.00 in0.0 mm 0.00 in0.0 mm
12:15 AM 63.5°F17.5°C 57.2°F14.0°C 80% Calm Calm -- 29.98 in1015.2 mb 0.00 in0.0 mm 0.00 in0.0 mm 0.00 in0.0 mm
12:30 AM 63.5°F17.5°C 57.6°F14.2°C 81% Calm Calm -- 29.98 in1015.2 mb 0.00 in0.0 mm 0.00 in0.0 mm 0.00 in0.0 mm
12:45 AM 63.9°F17.7°C 57.9°F14.4°C 81% Calm Calm -- 29.98 in1015.2 mb 0.00 in0.0 mm 0.00 in0.0 mm 0.00 in0.0 mm
01:00 AM 64.0°F17.8°C 58.1°F14.5°C 81% Calm Calm -- 29.98 in1015.2 mb 0.00 in0.0 mm 0.00 in0.0 mm 0.00 in0.0 mm
01:15 AM 64.4°F18.0°C 58.4°F14.7°C 81% Calm Calm -- 29.95 in1014.2 mb 0.00 in0.0 mm 0.00 in0.0 mm 0.00 in0.0 mm
01:30 AM 64.9°F18.3°C 59.3°F15.2°C 82% Calm Calm -- 29.98 in1015.2 mb 0.00 in0.0 mm 0.00 in0.0 mm 0.00 in0.0 mm
01:45 AM 66.4°F19.1°C 61.1°F16.2°C 83% Calm Calm -- 29.98 in1015.2 mb 0.00 in0.0 mm 0.00 in0.0 mm 0.00 in0.0 mm
02:00 AM 67.6°F19.8°C 62.3°F16.8°C 83% Calm Calm -- 29.98 in1015.2 mb 0.00 in0.0 mm 0.00 in0.0 mm 0.00 in0.0 mm
02:15 AM 68.5°F20.3°C 62.8°F17.1°C 82% Calm Calm -- 29.98 in1015.2 mb 0.00 in0.0 mm 0.00 in0.0 mm 0.00 in0.0 mm
02:30 AM 68.9°F20.5°C 63.5°F17.5°C 83% 5.6 mph W9.0 kmh W 9.7 mph15.6 kmh 30.01 in1016.3 mb 0.00 in0.0 mm 0.00 in0.0 mm 0.00 in0.0 mm
02:45 AM 68.2°F20.1°C 63.5°F17.5°C 85% 5.5 mph W8.9 kmh W 6.8 mph10.9 kmh 29.98 in1015.2 mb 0.05 in1.3 mm 0.20 in5.1 mm 0.05 in1.3 mm
03:00 AM 66.9°F19.4°C 62.3°F16.8°C 85% 3.5 mph W5.6 kmh W 9.7 mph15.6 kmh 29.98 in1015.2 mb 0.19 in4.8 mm 0.19 in4.8 mm 0.18 in4.6 mm
03:15 AM 66.4°F19.1°C 62.1°F16.7°C 86% 0.6 mph W1.0 kmh W 3.2 mph5.1 kmh 29.98 in1015.2 mb 0.19 in4.8 mm 0.00 in0.0 mm 0.18 in4.6 mm
03:30 AM 66.2°F19.0°C 62.2°F16.8°C 87% 0.1 mph S0.2 kmh S 1.4 mph2.3 kmh 29.98 in1015.2 mb 0.19 in4.8 mm 0.00 in0.0 mm 0.18 in4.6 mm
03:45 AM 66.2°F19.0°C 62.5°F16.9°C 88% 1.2 mph W1.9 kmh W 3.6 mph5.8 kmh 29.98 in1015.2 mb 0.14 in3.6 mm 0.00 in0.0 mm 0.18 in4.6 mm
04:00 AM 66.0°F18.9°C 62.7°F17.1°C 89% 1.5 mph W2.4 kmh W 1.8 mph2.9 kmh 29.98 in1015.2 mb 0.00 in0.0 mm 0.00 in0.0 mm 0.18 in4.6 mm
04:15 AM 66.0°F18.9°C 62.7°F17.1°C 89% 1.5 mph W2.4 kmh W 1.8 mph2.9 kmh 29.98 in1015.2 mb 0.00 in0.0 mm 0.00 in0.0 mm 0.18 in4.6 mm
04:30 AM 65.8°F18.8°C 62.5°F16.9°C 89% 1.5 mph W2.4 kmh W 1.8 mph2.9 kmh 29.95 in1014.2 mb 0.00 in0.0 mm 0.00 in0.0 mm 0.18 in4.6 mm
04:45 AM 65.8°F18.8°C 62.5°F16.9°C 89% 1.5 mph W2.4 kmh W 1.8 mph2.9 kmh 29.98 in1015.2 mb 0.00 in0.0 mm 0.00 in0.0 mm 0.18 in4.6 mm
05:00 AM 66.0°F18.9°C 63.0°F17.2°C 90% 1.5 mph W2.4 kmh W 1.8 mph2.9 kmh 29.95 in1014.2 mb 0.00 in0.0 mm 0.00 in0.0 mm 0.18 in4.6 mm
05:15 AM 66.0°F18.9°C 63.0°F17.2°C 90% Calm Calm -- 29.98 in1015.2 mb 0.00 in0.0 mm 0.00 in0.0 mm 0.18 in4.6 mm
05:30 AM 66.2°F19.0°C 62.9°F17.2°C 89% 3.8 mph W6.1 kmh W 4.7 mph7.6 kmh 29.95 in1014.2 mb 0.00 in0.0 mm 0.00 in0.0 mm 0.18 in4.6 mm
05:45 AM 66.2°F19.0°C 62.9°F17.2°C 89% 3.8 mph W6.1 kmh W 4.7 mph7.6 kmh 29.95 in1014.2 mb 0.00 in0.0 mm 0.00 in0.0 mm 0.18 in4.6 mm
06:00 AM 66.4°F19.1°C 63.0°F17.2°C 89% Calm Calm -- 29.95 in1014.2 mb 0.00 in0.0 mm 0.00 in0.0 mm 0.18 in4.6 mm
06:15 AM 66.9°F19.4°C 63.6°F17.6°C 89% Calm Calm -- 29.95 in1014.2 mb 0.00 in0.0 mm 0.00 in0.0 mm 0.18 in4.6 mm
06:30 AM 67.6°F19.8°C 64.3°F17.9°C 89% Calm Calm -- 29.95 in1014.2 mb 0.00 in0.0 mm 0.00 in0.0 mm 0.18 in4.6 mm
06:45 AM 68.4°F20.2°C 64.3°F17.9°C 87% 3.2 mph NW5.1 kmh NW 7.5 mph12.1 kmh 29.95 in1014.2 mb 0.00 in0.0 mm 0.00 in0.0 mm 0.18 in4.6 mm
07:00 AM 68.9°F20.5°C 64.5°F18.1°C 86% 1.7 mph W2.7 kmh W 2.1 mph3.4 kmh 29.95 in1014.2 mb 0.00 in0.0 mm 0.00 in0.0 mm 0.18 in4.6 mm
07:15 AM 69.3°F20.7°C 64.2°F17.9°C 84% 1.7 mph W2.7 kmh W 2.1 mph3.4 kmh 29.95 in1014.2 mb 0.00 in0.0 mm 0.00 in0.0 mm 0.18 in4.6 mm
07:30 AM 69.6°F20.9°C 64.2°F17.9°C 83% 1.7 mph W2.7 kmh W 2.1 mph3.4 kmh 29.95 in1014.2 mb 0.00 in0.0 mm 0.00 in0.0 mm 0.18 in4.6 mm
07:45 AM 69.6°F20.9°C 63.2°F17.3°C 80% 1.7 mph W2.7 kmh W 2.1 mph3.4 kmh 29.95 in1014.2 mb 0.00 in0.0 mm 0.00 in0.0 mm 0.18 in4.6 mm
08:00 AM 69.8°F21.0°C 62.6°F17.0°C 78% 1.7 mph W2.7 kmh W 2.1 mph3.4 kmh 29.98 in1015.2 mb 0.00 in0.0 mm 0.00 in0.0 mm 0.18 in4.6 mm
08:15 AM 70.2°F21.2°C 62.6°F17.0°C 77% 4.8 mph W7.7 kmh W 10.7 mph17.2 kmh 29.95 in1014.2 mb 0.00 in0.0 mm 0.00 in0.0 mm 0.18 in4.6 mm
08:30 AM 70.2°F21.2°C 61.9°F16.6°C 75% 3.9 mph W6.3 kmh W 8.6 mph13.8 kmh 29.98 in1015.2 mb 0.00 in0.0 mm 0.00 in0.0 mm 0.18 in4.6 mm
08:45 AM 70.2°F21.2°C 61.5°F16.4°C 74% 2.9 mph W4.7 kmh W 4.3 mph6.9 kmh 29.98 in1015.2 mb 0.00 in0.0 mm 0.00 in0.0 mm 0.22 in5.6 mm
09:00 AM 70.9°F21.6°C 62.2°F16.8°C 74% 3.5 mph NW5.6 kmh NW 7.5 mph12.1 kmh 29.98 in1015.2 mb 0.00 in0.0 mm 0.00 in0.0 mm 0.22 in5.6 mm
09:15 AM 71.4°F21.9°C 62.3°F16.8°C 73% 4.9 mph NW7.9 kmh NW 6.1 mph9.8 kmh 29.98 in1015.2 mb 0.00 in0.0 mm 0.00 in0.0 mm 0.22 in5.6 mm
09:30 AM 71.8°F22.1°C 61.9°F16.6°C 71% 3.7 mph W6.0 kmh W 9.7 mph15.6 kmh 29.98 in1015.2 mb 0.00 in0.0 mm 0.00 in0.0 mm 0.22 in5.6 mm
09:45 AM 72.1°F22.3°C 61.4°F16.3°C 69% 3.6 mph W5.8 kmh W 7.2 mph11.6 kmh 29.98 in1015.2 mb 0.00 in0.0 mm 0.00 in0.0 mm 0.22 in5.6 mm
10:00 AM 71.4°F21.9°C 61.5°F16.4°C 71% 3.4 mph WNW5.5 kmh WNW 7.9 mph12.7 kmh 29.98 in1015.2 mb 0.00 in0.0 mm 0.00 in0.0 mm 0.22 in5.6 mm
10:15 AM 72.3°F22.4°C 62.0°F16.7°C 70% 4.7 mph W7.6 kmh W 13.6 mph21.9 kmh 29.98 in1015.2 mb 0.00 in0.0 mm 0.00 in0.0 mm 0.22 in5.6 mm
10:30 AM 72.0°F22.2°C 61.2°F16.2°C 69% 3.8 mph W6.1 kmh W 5.0 mph8.0 kmh 29.98 in1015.2 mb 0.00 in0.0 mm 0.00 in0.0 mm 0.22 in5.6 mm
10:45 AM 74.8°F23.8°C 63.1°F17.3°C 67% 5.7 mph WNW9.2 kmh WNW 22.2 mph35.7 kmh 29.98 in1015.2 mb 0.00 in0.0 mm 0.00 in0.0 mm 0.22 in5.6 mm
11:00 AM 75.2°F24.0°C 61.3°F16.3°C 62% 5.0 mph W8.0 kmh W 10.0 mph16.1 kmh 29.98 in1015.2 mb 0.00 in0.0 mm 0.00 in0.0 mm 0.22 in5.6 mm
11:15 AM 74.1°F23.4°C 61.2°F16.2°C 64% 4.8 mph W7.7 kmh W 10.0 mph16.1 kmh 29.98 in1015.2 mb 0.00 in0.0 mm 0.00 in0.0 mm 0.22 in5.6 mm
11:30 AM 74.7°F23.7°C 61.2°F16.2°C 63% 5.8 mph WNW9.3 kmh WNW 11.8 mph19.0 kmh 29.98 in1015.2 mb 0.00 in0.0 mm 0.00 in0.0 mm 0.22 in5.6 mm
11:45 AM 75.4°F24.1°C 62.4°F16.9°C 64% 6.4 mph WNW10.3 kmh WNW 12.2 mph19.6 kmh 29.98 in1015.2 mb 0.00 in0.0 mm 0.00 in0.0 mm 0.22 in5.6 mm
12:00 PM 75.6°F24.2°C 61.2°F16.2°C 61% 6.6 mph W10.6 kmh W 15.4 mph24.8 kmh 29.98 in1015.2 mb 0.00 in0.0 mm 0.00 in0.0 mm 0.22 in5.6 mm
12:15 PM 75.7°F24.3°C 60.9°F16.1°C 60% 5.7 mph NW9.2 kmh NW 16.5 mph26.6 kmh 29.98 in1015.2 mb 0.00 in0.0 mm 0.00 in0.0 mm 0.22 in5.6 mm
12:30 PM 75.4°F24.1°C 61.5°F16.4°C 62% 6.4 mph W10.3 kmh W 12.2 mph19.6 kmh 29.98 in1015.2 mb 0.00 in0.0 mm 0.00 in0.0 mm 0.22 in5.6 mm
12:45 PM 76.8°F24.9°C 62.3°F16.8°C 61% 7.0 mph W11.3 kmh W 12.9 mph20.8 kmh 29.98 in1015.2 mb 0.00 in0.0 mm 0.00 in0.0 mm 0.22 in5.6 mm
01:00 PM 77.2°F25.1°C 61.3°F16.3°C 58% 4.8 mph WNW7.7 kmh WNW 8.9 mph14.3 kmh 29.98 in1015.2 mb 0.00 in0.0 mm 0.00 in0.0 mm 0.22 in5.6 mm
01:15 PM 78.1°F25.6°C 61.6°F16.4°C 57% 5.9 mph W9.5 kmh W 10.0 mph16.1 kmh 29.98 in1015.2 mb 0.00 in0.0 mm 0.00 in0.0 mm 0.22 in5.6 mm
01:30 PM 78.1°F25.6°C 61.1°F16.2°C 56% 6.7 mph WNW10.8 kmh WNW 19.0 mph30.6 kmh 29.98 in1015.2 mb 0.00 in0.0 mm 0.00 in0.0 mm 0.22 in5.6 mm
01:45 PM 77.5°F25.3°C 60.6°F15.9°C 56% 6.6 mph W10.6 kmh W 16.5 mph26.6 kmh 29.98 in1015.2 mb 0.00 in0.0 mm 0.00 in0.0 mm 0.22 in5.6 mm
02:00 PM 77.4°F25.2°C 60.9°F16.1°C 57% 5.2 mph WNW8.4 kmh WNW 13.6 mph21.9 kmh 29.95 in1014.2 mb 0.00 in0.0 mm 0.00 in0.0 mm 0.22 in5.6 mm
02:15 PM 77.9°F25.5°C 60.9°F16.1°C 56% 6.6 mph W10.6 kmh W 16.5 mph26.6 kmh 29.98 in1015.2 mb 0.00 in0.0 mm 0.00 in0.0 mm 0.22 in5.6 mm
02:30 PM 77.4°F25.2°C 60.4°F15.8°C 56% 5.4 mph W8.7 kmh W 15.4 mph24.8 kmh 29.98 in1015.2 mb 0.00 in0.0 mm 0.00 in0.0 mm 0.22 in5.6 mm
02:45 PM 76.8°F24.9°C 59.4°F15.2°C 55% 6.4 mph WNW10.3 kmh WNW 16.1 mph25.9 kmh 29.98 in1015.2 mb 0.00 in0.0 mm 0.00 in0.0 mm 0.22 in5.6 mm
03:00 PM 76.8°F24.9°C 58.9°F14.9°C 54% 7.2 mph WNW11.6 kmh WNW 20.8 mph33.5 kmh 29.95 in1014.2 mb 0.00 in0.0 mm 0.00 in0.0 mm 0.22 in5.6 mm
03:15 PM 76.8°F24.9°C 58.4°F14.7°C 53% 6.6 mph WNW10.6 kmh WNW 16.1 mph25.9 kmh 29.95 in1014.2 mb 0.00 in0.0 mm 0.00 in0.0 mm 0.22 in5.6 mm
03:30 PM 76.3°F24.6°C 57.9°F14.4°C 53% 7.8 mph WNW12.6 kmh WNW 17.5 mph28.2 kmh 29.95 in1014.2 mb 0.00 in0.0 mm 0.00 in0.0 mm 0.22 in5.6 mm
03:45 PM 76.3°F24.6°C 57.9°F14.4°C 53% 6.6 mph W10.6 kmh W 19.7 mph31.7 kmh 29.95 in1014.2 mb 0.00 in0.0 mm 0.00 in0.0 mm 0.22 in5.6 mm
04:00 PM 76.6°F24.8°C 58.2°F14.6°C 53% 6.1 mph W9.8 kmh W 17.2 mph27.7 kmh 29.95 in1014.2 mb 0.00 in0.0 mm 0.00 in0.0 mm 0.22 in5.6 mm
04:15 PM 76.3°F24.6°C 57.9°F14.4°C 53% 6.7 mph WNW10.8 kmh WNW 16.5 mph26.6 kmh 29.95 in1014.2 mb 0.00 in0.0 mm 0.00 in0.0 mm 0.22 in5.6 mm
04:30 PM 75.4°F24.1°C 57.1°F13.9°C 53% 6.1 mph WNW9.8 kmh WNW 16.5 mph26.6 kmh 29.95 in1014.2 mb 0.00 in0.0 mm 0.00 in0.0 mm 0.22 in5.6 mm
04:45 PM 75.2°F24.0°C 56.9°F13.8°C 53% 6.8 mph WNW10.9 kmh WNW 16.1 mph25.9 kmh 29.95 in1014.2 mb 0.00 in0.0 mm 0.00 in0.0 mm 0.22 in5.6 mm
05:00 PM 75.0°F23.9°C 57.2°F14.0°C 54% 6.4 mph WNW10.3 kmh WNW 15.0 mph24.1 kmh 29.95 in1014.2 mb 0.00 in0.0 mm 0.00 in0.0 mm 0.22 in5.6 mm
05:15 PM 74.5°F23.6°C 57.3°F14.1°C 55% 6.7 mph W10.8 kmh W 14.7 mph23.7 kmh 29.95 in1014.2 mb 0.00 in0.0 mm 0.00 in0.0 mm 0.22 in5.6 mm
05:30 PM 74.1°F23.4°C 56.4°F13.6°C 54% 5.9 mph W9.5 kmh W 12.9 mph20.8 kmh 29.95 in1014.2 mb 0.00 in0.0 mm 0.00 in0.0 mm 0.22 in5.6 mm
05:45 PM 73.8°F23.2°C 56.6°F13.7°C 55% 6.4 mph W10.3 kmh W 16.8 mph27.0 kmh 29.95 in1014.2 mb 0.00 in0.0 mm 0.00 in0.0 mm 0.22 in5.6 mm
06:00 PM 73.4°F23.0°C 56.2°F13.4°C 55% 6.3 mph WNW10.1 kmh WNW 17.5 mph28.2 kmh 29.95 in1014.2 mb 0.00 in0.0 mm 0.00 in0.0 mm 0.22 in5.6 mm
06:15 PM 73.0°F22.8°C 56.4°F13.6°C 56% 4.9 mph W7.9 kmh W 9.7 mph15.6 kmh 29.95 in1014.2 mb 0.00 in0.0 mm 0.00 in0.0 mm 0.22 in5.6 mm
06:30 PM 72.9°F22.7°C 56.2°F13.4°C 56% 6.5 mph W10.5 kmh W 12.9 mph20.8 kmh 29.95 in1014.2 mb 0.00 in0.0 mm 0.00 in0.0 mm 0.22 in5.6 mm
06:45 PM 72.5°F22.5°C 56.4°F13.6°C 57% 6.0 mph WNW9.7 kmh WNW 13.6 mph21.9 kmh 29.92 in1013.2 mb 0.00 in0.0 mm 0.00 in0.0 mm 0.22 in5.6 mm
07:00 PM 71.8°F22.1°C 55.7°F13.2°C 57% 5.4 mph W8.7 kmh W 16.5 mph26.6 kmh 29.92 in1013.2 mb 0.00 in0.0 mm 0.00 in0.0 mm 0.22 in5.6 mm
07:15 PM 71.1°F21.7°C 56.0°F13.3°C 59% 4.7 mph W7.6 kmh W 13.6 mph21.9 kmh 29.92 in1013.2 mb 0.00 in0.0 mm 0.00 in0.0 mm 0.22 in5.6 mm
07:30 PM 70.5°F21.4°C 56.0°F13.3°C 60% 5.3 mph W8.5 kmh W 11.5 mph18.5 kmh 29.92 in1013.2 mb 0.00 in0.0 mm 0.00 in0.0 mm 0.22 in5.6 mm
07:45 PM 70.0°F21.1°C 55.9°F13.3°C 61% 4.6 mph W7.4 kmh W 10.0 mph16.1 kmh 29.89 in1012.2 mb 0.00 in0.0 mm 0.00 in0.0 mm 0.22 in5.6 mm
08:00 PM 69.4°F20.8°C 55.9°F13.3°C 62% 5.3 mph W8.5 kmh W 11.8 mph19.0 kmh 29.89 in1012.2 mb 0.00 in0.0 mm 0.00 in0.0 mm 0.22 in5.6 mm
08:15 PM 68.9°F20.5°C 55.8°F13.2°C 63% 2.8 mph W4.5 kmh W 9.3 mph15.0 kmh 29.92 in1013.2 mb 0.00 in0.0 mm 0.00 in0.0 mm 0.22 in5.6 mm
08:30 PM 68.4°F20.2°C 55.7°F13.2°C 64% 4.5 mph W7.2 kmh W 12.9 mph20.8 kmh 29.92 in1013.2 mb 0.00 in0.0 mm 0.00 in0.0 mm 0.22 in5.6 mm
08:45 PM 68.0°F20.0°C 55.8°F13.2°C 65% 2.8 mph W4.5 kmh W 8.9 mph14.3 kmh 29.92 in1013.2 mb 0.00 in0.0 mm 0.00 in0.0 mm 0.22 in5.6 mm
09:00 PM 67.6°F19.8°C 56.3°F13.5°C 67% 3.8 mph W6.1 kmh W 11.8 mph19.0 kmh 29.89 in1012.2 mb 0.00 in0.0 mm 0.00 in0.0 mm 0.22 in5.6 mm
09:15 PM 67.6°F19.8°C 57.1°F13.9°C 69% 3.8 mph W6.1 kmh W 9.3 mph15.0 kmh 29.89 in1012.2 mb 0.00 in0.0 mm 0.00 in0.0 mm 0.22 in5.6 mm
09:30 PM 67.5°F19.7°C 57.3°F14.1°C 70% 4.3 mph W6.9 kmh W 9.7 mph15.6 kmh 29.89 in1012.2 mb 0.00 in0.0 mm 0.00 in0.0 mm 0.22 in5.6 mm
09:45 PM 67.6°F19.8°C 59.1°F15.1°C 74% 4.7 mph WNW7.6 kmh WNW 12.2 mph19.6 kmh 29.89 in1012.2 mb 0.00 in0.0 mm 0.00 in0.0 mm 0.22 in5.6 mm
10:00 PM 67.1°F19.5°C 59.3°F15.2°C 76% 5.3 mph WNW8.5 kmh WNW 13.6 mph21.9 kmh 29.92 in1013.2 mb 0.00 in0.0 mm 0.00 in0.0 mm 0.22 in5.6 mm
10:15 PM 66.9°F19.4°C 59.1°F15.1°C 76% 6.7 mph WNW10.8 kmh WNW 20.8 mph33.5 kmh 29.92 in1013.2 mb 0.00 in0.0 mm 0.00 in0.0 mm 0.22 in5.6 mm
10:30 PM 66.7°F19.3°C 58.9°F14.9°C 76% 6.1 mph W9.8 kmh W 16.8 mph27.0 kmh 29.92 in1013.2 mb 0.00 in0.0 mm 0.00 in0.0 mm 0.22 in5.6 mm
10:45 PM 66.6°F19.2°C 58.8°F14.9°C 76% 3.3 mph W5.3 kmh W 8.9 mph14.3 kmh 29.95 in1014.2 mb 0.00 in0.0 mm 0.00 in0.0 mm 0.22 in5.6 mm
11:00 PM 66.6°F19.2°C 58.8°F14.9°C 76% 3.2 mph W5.1 kmh W 6.4 mph10.3 kmh 29.92 in1013.2 mb 0.00 in0.0 mm 0.00 in0.0 mm 0.19 in4.8 mm
11:15 PM 66.4°F19.1°C 58.6°F14.8°C 76% 3.6 mph W5.8 kmh W 10.4 mph16.7 kmh 29.95 in1014.2 mb 0.00 in0.0 mm 0.00 in0.0 mm 0.19 in4.8 mm
11:30 PM 66.6°F19.2°C 58.8°F14.9°C 76% 4.4 mph W7.1 kmh W 10.4 mph16.7 kmh 29.92 in1013.2 mb 0.00 in0.0 mm 0.00 in0.0 mm 0.19 in4.8 mm
11:45 PM 66.6°F19.2°C 58.8°F14.9°C 76% 5.0 mph WNW8.0 kmh WNW 16.8 mph27.0 kmh 29.92 in1013.2 mb 0.00 in0.0 mm 0.00 in0.0 mm 0.19 in4.8 mm